createdAt,value
2019-06-07T13:00:33.146Z,54.38
2019-06-07T13:03:07.159Z,51.83
2019-06-07T13:05:40.263Z,51.83
2019-06-07T13:08:13.459Z,52.08
2019-06-07T13:10:46.532Z,52.09
2019-06-07T13:13:20.995Z,49.88
2019-06-07T13:15:53.814Z,52.19
2019-06-07T13:18:28.568Z,51.56
2019-06-07T13:21:02.489Z,55.07
2019-06-07T13:23:36.313Z,54.45
2019-06-07T13:26:09.689Z,52.75
2019-06-07T13:28:42.791Z,52.52
2019-06-07T13:31:16.547Z,52.52
2019-06-07T13:33:50.318Z,52.79
2019-06-07T13:36:24.405Z,53.69
2019-06-07T13:38:57.313Z,53.69
2019-06-07T13:41:42.018Z,53.07
2019-06-07T13:44:07.522Z,53.59
2019-06-07T13:46:41.928Z,53.32
2019-06-07T13:49:17.230Z,53.29
2019-06-07T13:51:51.281Z,54.89
2019-06-07T13:54:25.139Z,56.42
2019-06-07T13:57:03.404Z,55.39
2019-06-07T13:59:36.148Z,53.33
2019-06-07T14:02:10.651Z,53.21
2019-06-07T14:04:46.921Z,52.64
2019-06-07T14:07:23.667Z,51.13
2019-06-07T14:09:58.689Z,50.80
2019-06-07T14:12:33.544Z,51.70
2019-06-07T14:15:07.184Z,53.77
2019-06-07T14:17:39.584Z,54.61
2019-06-07T14:20:13.246Z,53.58
2019-06-07T14:22:47.086Z,52.78
2019-06-07T14:25:23.014Z,51.80
2019-06-07T14:27:56.172Z,51.80
2019-06-07T14:30:32.178Z,53.71
2019-06-07T14:33:05.805Z,53.71
2019-06-07T14:35:39.581Z,53.66
2019-06-07T14:38:13.005Z,53.33
2019-06-07T14:40:45.593Z,55.85
2019-06-07T14:43:31.726Z,56.70
2019-06-07T14:46:06.895Z,57.41
2019-06-07T14:48:45.424Z,56.35
2019-06-07T14:51:18.216Z,57.02
2019-06-07T14:53:51.005Z,58.00
2019-06-07T14:56:24.852Z,56.24
2019-06-07T14:58:58.482Z,56.24
2019-06-07T15:01:35.459Z,54.03
2019-06-07T15:04:16.040Z,53.01
2019-06-07T15:06:51.841Z,53.97
2019-06-07T15:09:29.059Z,53.36
2019-06-07T15:12:04.164Z,53.02
2019-06-07T15:14:37.648Z,54.21
2019-06-07T15:17:12.945Z,56.24
2019-06-07T15:19:47.232Z,56.15
2019-06-07T15:22:26.272Z,52.13
2019-06-07T15:25:01.986Z,52.13
2019-06-07T15:27:37.644Z,52.92
2019-06-07T15:30:13.552Z,53.95
2019-06-07T15:32:47.544Z,53.95
2019-06-07T15:35:21.283Z,52.39
2019-06-07T15:37:55.179Z,50.82
2019-06-07T15:40:29.141Z,50.59
2019-06-07T15:43:02.474Z,50.68
2019-06-07T15:45:35.954Z,51.32
2019-06-07T15:48:13.138Z,52.04
2019-06-07T15:50:46.527Z,54.16
2019-06-07T15:53:19.843Z,56.35
2019-06-07T15:55:53.992Z,55.39
2019-06-07T15:58:26.726Z,52.71
2019-06-07T16:01:00.302Z,52.79
2019-06-07T16:03:33.827Z,53.92
2019-06-07T16:06:07.135Z,52.58
2019-06-07T16:08:40.465Z,52.68
2019-06-07T16:11:13.646Z,53.97
2019-06-07T16:13:46.706Z,54.06
2019-06-07T16:16:19.207Z,56.46
2019-06-07T16:18:52.778Z,56.20
2019-06-07T16:21:25.706Z,56.20
2019-06-07T16:23:58.998Z,55.75
2019-06-07T16:26:36.067Z,56.80
2019-06-07T16:29:08.985Z,57.32
2019-06-07T16:31:45.192Z,58.72
2019-06-07T16:34:19.126Z,58.95
2019-06-07T16:36:53.100Z,59.52
2019-06-07T16:39:25.811Z,59.52
2019-06-07T16:41:59.304Z,60.32
2019-06-07T16:44:34.882Z,61.98
2019-06-07T16:47:11.959Z,62.75
2019-06-07T16:49:46.075Z,62.75
2019-06-07T16:52:21.625Z,65.19
2019-06-07T16:54:54.716Z,65.19
2019-06-07T16:57:29.513Z,65.21
2019-06-07T17:00:04.415Z,65.21
2019-06-07T17:02:38.165Z,63.85
2019-06-07T17:05:12.510Z,63.49
2019-06-07T17:07:52.038Z,63.07
2019-06-07T17:10:25.665Z,63.07
2019-06-07T17:12:59.240Z,60.38
2019-06-07T17:15:33.819Z,59.47
2019-06-07T17:18:07.037Z,57.39
2019-06-07T17:20:41.015Z,56.84
2019-06-07T17:23:15.415Z,56.84
2019-06-07T17:25:49.678Z,58.18
2019-06-07T17:28:23.303Z,58.56
2019-06-07T17:31:01.201Z,59.03
2019-06-07T17:33:34.801Z,59.03
2019-06-07T17:36:10.583Z,59.21
2019-06-07T17:38:44.567Z,60.72
2019-06-07T17:41:18.080Z,60.90
2019-06-07T17:43:58.482Z,61.84
2019-06-07T17:46:30.855Z,62.38
2019-06-07T17:49:05.037Z,62.38
2019-06-07T17:51:38.273Z,63.18
2019-06-07T17:54:12.732Z,63.18
2019-06-07T17:56:50.520Z,62.82
2019-06-07T17:59:24.964Z,64.02
2019-06-07T18:02:15.545Z,64.02
2019-06-07T18:04:40.708Z,64.87
2019-06-07T18:07:15.950Z,66.44
2019-06-07T18:09:49.727Z,70.11
2019-06-07T18:12:24.590Z,70.66
2019-06-07T18:15:22.459Z,70.66
2019-06-07T18:17:57.161Z,73.49
2019-06-07T18:20:31.880Z,75.01
2019-06-07T18:23:04.957Z,75.01
2019-06-07T18:25:38.533Z,81.15
2019-06-07T18:28:11.960Z,83.24
2019-06-07T18:30:46.547Z,100.00
2019-06-07T18:33:19.267Z,100.00
2019-06-07T18:35:53.315Z,100.00
2019-06-07T18:38:26.538Z,100.00
2019-06-07T18:41:00.448Z,100.00
2019-06-07T18:43:34.271Z,100.00
2019-06-07T18:46:07.836Z,100.00
2019-06-07T18:48:42.500Z,100.00
2019-06-07T18:51:16.455Z,100.00
2019-06-07T18:53:49.805Z,100.00
2019-06-07T18:56:23.306Z,100.00
2019-06-07T18:58:56.812Z,100.00
2019-06-07T19:01:30.233Z,100.00
2019-06-07T19:04:06.578Z,100.00
2019-06-07T19:06:39.677Z,100.00
2019-06-07T19:09:12.840Z,100.00
2019-06-07T19:11:45.666Z,100.00
2019-06-07T19:14:19.232Z,100.00
2019-06-07T19:16:53.709Z,100.00
2019-06-07T19:19:26.529Z,100.00
2019-06-07T19:22:00.181Z,100.00
2019-06-07T19:24:34.055Z,100.00
2019-06-07T19:27:07.207Z,100.00
2019-06-07T19:29:40.317Z,100.00
2019-06-07T19:32:13.803Z,100.00
2019-06-07T19:34:46.911Z,100.00
2019-06-07T19:37:20.450Z,100.00
2019-06-07T19:39:55.599Z,100.00
2019-06-07T19:42:28.707Z,100.00
2019-06-07T19:45:28.268Z,100.00
2019-06-07T19:47:39.571Z,100.00
2019-06-07T19:50:13.086Z,100.00
2019-06-07T19:52:46.760Z,100.00
2019-06-07T19:55:20.363Z,100.00
2019-06-07T19:57:53.745Z,100.00
2019-06-07T20:00:26.469Z,100.00
2019-06-07T20:02:59.974Z,100.00
2019-06-07T20:05:34.104Z,100.00
2019-06-07T20:08:07.867Z,100.00
2019-06-07T20:10:41.377Z,100.00
2019-06-07T20:13:14.992Z,100.00
2019-06-07T20:15:48.692Z,100.00
2019-06-07T20:18:21.846Z,100.00
2019-06-07T20:20:56.415Z,100.00
2019-06-07T20:23:29.203Z,100.00
2019-06-07T20:26:02.506Z,100.00
2019-06-07T20:28:36.450Z,100.00
2019-06-07T20:31:10.366Z,100.00
2019-06-07T20:33:43.483Z,100.00
2019-06-07T20:36:17.078Z,100.00
2019-06-07T20:38:49.786Z,100.00
2019-06-07T20:41:22.655Z,100.00
2019-06-07T20:43:57.641Z,100.00
2019-06-07T20:46:31.517Z,100.00
2019-06-07T20:49:05.196Z,100.00
2019-06-07T20:51:39.638Z,100.00
2019-06-07T20:54:13.293Z,100.00
2019-06-07T20:56:47.335Z,100.00
2019-06-07T20:59:20.329Z,100.00
2019-06-07T21:01:54.090Z,100.00
2019-06-07T21:04:29.065Z,100.00
2019-06-07T21:07:01.758Z,100.00
2019-06-07T21:09:35.555Z,100.00
2019-06-07T21:12:09.944Z,100.00
2019-06-07T21:14:43.237Z,100.00
2019-06-07T21:17:17.158Z,100.00
2019-06-07T21:19:51.438Z,100.00
2019-06-07T21:22:25.247Z,100.00
2019-06-07T21:24:57.875Z,100.00
2019-06-07T21:27:31.328Z,100.00
2019-06-07T21:30:07.267Z,100.00
2019-06-07T21:32:40.471Z,100.00
2019-06-07T21:35:13.713Z,100.00
2019-06-07T21:37:48.380Z,100.00
2019-06-07T21:40:21.495Z,100.00
2019-06-07T21:42:54.044Z,100.00
2019-06-07T21:45:28.873Z,100.00
2019-06-07T21:48:03.704Z,100.00
2019-06-07T21:50:37.069Z,100.00
2019-06-07T21:53:10.720Z,100.00
2019-06-07T21:55:43.538Z,100.00
2019-06-07T21:58:17.801Z,100.00
2019-06-07T22:01:27.603Z,100.00
2019-06-07T22:04:05.425Z,100.00
2019-06-07T22:06:42.732Z,100.00
2019-06-07T22:09:15.370Z,100.00
2019-06-07T22:11:48.109Z,100.00
2019-06-07T22:14:26.649Z,100.00
2019-06-07T22:17:05.921Z,100.00
2019-06-07T22:19:43.491Z,100.00
2019-06-07T22:22:16.970Z,100.00
2019-06-07T22:24:50.370Z,100.00
2019-06-07T22:27:26.129Z,100.00
2019-06-07T22:29:59.234Z,100.00
2019-06-07T22:32:34.706Z,100.00
2019-06-07T22:35:10.908Z,100.00
2019-06-07T22:37:44.540Z,100.00
2019-06-07T22:40:18.670Z,99.29
2019-06-07T22:42:55.999Z,97.06
2019-06-07T22:45:33.202Z,97.92
2019-06-07T22:48:06.820Z,99.05
2019-06-07T22:50:44.017Z,94.68
2019-06-07T22:53:17.933Z,91.61
2019-06-07T22:56:16.092Z,92.33
2019-06-07T22:59:08.341Z,94.26
2019-06-07T23:01:47.394Z,93.09
2019-06-07T23:04:24.851Z,90.98
2019-06-07T23:06:58.098Z,89.03
2019-06-07T23:09:37.845Z,87.52
2019-06-07T23:12:15.491Z,86.01
2019-06-07T23:14:53.139Z,86.98
2019-06-07T23:17:25.900Z,86.45
2019-06-07T23:20:05.307Z,88.80
2019-06-07T23:22:36.774Z,85.68
2019-06-07T23:25:27.089Z,86.03
2019-06-07T23:28:05.590Z,85.90
2019-06-07T23:30:43.770Z,83.81
2019-06-07T23:33:17.225Z,83.70
2019-06-07T23:35:53.529Z,83.12
2019-06-07T23:38:27.694Z,83.42
2019-06-07T23:41:05.068Z,84.97
2019-06-07T23:43:46.257Z,82.64
2019-06-07T23:46:24.642Z,81.72
2019-06-07T23:49:03.440Z,81.59
2019-06-07T23:51:36.467Z,83.16
2019-06-07T23:54:18.172Z,83.35
2019-06-07T23:56:56.159Z,83.42
2019-06-07T23:59:37.035Z,83.07
